UBC Young Douglas Fir (YF) Site

Current climate data:

Measured at 23:30:00, 2022-01-24 (Local time)

 Air temperature        =  -0.99 C 
 Relative humidity      = 100.00 % 
 Wind speed             =   0.93 m/s
 Wind direction         = 167.09  
 Barometric pressure    = 101.48 kPa 
 Precipitation (last 30 min) =   0.00 mm 
 Precipitation (24h totals ending at  4:00 AM today)  =   0.16 mm 
 Precipitation (24h totals ending at 11:30 PM today)  =   0.00 mm 
 Cumulative Precipitation (2022) =  NaN mm 

Current Picture (Time stamp:UTC)  (Full size image)

Fire index data:

Year  Month  Day  Hour  Tair(C) RH(%) Wind(m/s) W_Dir(deg)  Rain(mm)   ffmc     dmc      dc     bui     isi     fwi     dsr     Rating
2021     12   26   13   -9.09   64.87    2.55    137.63      0.00     32.86    0.02    0.00    0.00    0.01    0.00    0.00       1  
2021     12   27   13   -8.22   62.49    0.48    253.21      0.00     42.42    0.02    0.00    0.00    0.06    0.01    0.00       1  
2021     12   28   13   -5.63   89.57    1.04     89.46      0.00     46.34    0.02    0.00    0.00    0.12    0.02    0.00       1  
2021     12   29   13   -3.93   64.66    0.31    309.05      0.00     54.50    0.02    0.00    0.00    0.28    0.06    0.00       1  
2021     12   30   13   -2.47   83.06    2.16    171.26      0.00     60.09    0.02    0.00    0.00    0.61    0.12    0.00       1  
2021     12   31   13   -2.50   60.45    1.77    202.12      0.00     68.01    0.02    0.00    0.00    0.81    0.16    0.00       1  
2022      1    1   13   -2.85   90.38    2.47    355.81      0.00     69.35    0.02    0.00    0.00    0.96    0.19    0.00       1  
2022      1    2   13    2.65  100.00    4.90    327.66     54.56     69.39    0.02    0.18    0.03    1.49    0.30    0.00       1  
2022      1    3   13    1.03   95.32    1.13    357.32     56.00     62.43    0.03    0.18    0.05    0.58    0.12    0.00       1  
2022      1    4   13   -0.08   97.09    0.89     68.08      1.44     49.94    0.04    0.18    0.05    0.19    0.04    0.00       1  
2022      1    5   13   -3.39   95.36    0.53    216.53      0.00     51.33    0.04    0.18    0.05    0.21    0.04    0.00       1  
2022      1    6   13   -0.02   96.69    0.97     25.66      0.00     52.59    0.04    0.18    0.05    0.26    0.05    0.00       1  
2022      1    7   13    0.24   74.63    1.50    146.10     10.88     25.11    0.04    0.00    0.00    0.00    0.00    0.00       1  
2022      1    8   13   -0.23   91.71    1.49     31.61      1.76     24.58    0.01    0.00    0.00    0.00    0.00    0.00       1  
2022      1    9   13    5.53   76.13    0.76    254.67     16.00     17.12    0.19    0.70    0.23    0.00    0.00    0.00       1  
2022      1   10   13    3.46   98.28    3.10    334.13     23.36      3.56    0.01    0.33    0.02    0.00    0.00    0.00       1  
2022      1   11   13    6.22   97.23    1.53    322.17     30.40      2.89    0.02    0.82    0.05    0.00    0.00    0.00       1  
2022      1   12   13    6.93   97.95    0.76     24.93     50.88      1.80    0.02    0.95    0.04    0.00    0.00    0.00       1  
2022      1   13   13    7.08   97.55    1.02    205.32     18.08      2.35    0.02    0.98    0.05    0.00    0.00    0.00       1  
2022      1   14   13    5.47   98.58    1.75    344.98      0.00      3.92    0.04    1.67    0.07    0.00    0.00    0.00       1  
2022      1   15   13    5.53   90.59    1.06     39.17      0.48     11.67    0.11    2.37    0.20    0.00    0.00    0.00       1  
2022      1   16   13    4.16   98.88    0.09    285.43      0.80     11.47    0.12    2.82    0.22    0.00    0.00    0.00       1  
2022      1   17   13    4.10   98.26    0.65    247.58      0.32     12.81    0.13    3.26    0.24    0.00    0.00    0.00       1  
2022      1   18   13    4.82   97.59    0.28    197.77      0.96     13.13    0.15    3.83    0.27    0.00    0.00    0.00       1  
2022      1   19   13    4.86   98.45    0.84     49.73      1.44     12.03    0.16    4.41    0.29    0.00    0.00    0.00       1  
2022      1   20   13    7.27   85.88    3.15    146.80     23.52     26.72    0.31    5.42    0.54    0.00    0.00    0.00       1  
2022      1   21   13    4.60   88.67    1.22    294.04      0.00     34.83    0.39    5.96    0.66    0.01    0.00    0.00       1  
2022      1   22   13    3.53   88.72    0.74    304.08      0.00     41.07    0.45    6.30    0.76    0.05    0.01    0.00       1  
2022      1   23   13   -0.21   99.77    0.85    181.08      0.16     41.22    0.45    6.30    0.76    0.05    0.01    0.00       1  
2022      1   24   13   -0.18   99.64    1.09    302.35      0.00     41.44    0.45    6.30    0.76    0.06    0.01    0.00       1  

(c) 2022 Biomet Group, University of British Columbia, Canada